Time;durP1;ratioP1;P1;durP2;ratioP2;P2;SDS_P1;SDS_P2;PMS_P1;PMS_P2;Temp;Humidity;BMP_temperature;BMP_pressure;BME280_temperature;BME280_humidity;BME280_pressure;Samples;Min_cycle;Max_cycle;Signal;HPM_P1;HPM_P2
2022/04/12 00:01:07;;;;;;;20.10;4.45;;;31.10;24.40;;;;;;5049706;28;20077;-69
2022/04/12 00:03:33;;;;;;;41.10;11.05;;;30.90;24.50;;;;;;5066821;28;20076;-66
2022/04/12 00:06:00;;;;;;;22.80;3.90;;;31.00;24.70;;;;;;5066728;28;20527;-69
2022/04/12 00:08:27;;;;;;;18.77;4.30;;;31.00;24.40;;;;;;5049814;28;20412;-69
2022/04/12 00:10:53;;;;;;;28.20;5.13;;;30.90;24.50;;;;;;5064826;28;20076;-66
2022/04/12 00:13:20;;;;;;;153.57;10.23;;;30.90;24.60;;;;;;5047714;28;20065;-73
2022/04/12 00:15:49;;;;;;;52.10;5.93;;;30.90;24.30;;;;;;5048026;28;20172;-68
2022/04/12 00:21:02;;;;;;;23.30;4.30;;;30.40;25.10;;;;;;5048910;28;20077;-68
2022/04/12 00:23:28;;;;;;;23.67;5.30;;;30.30;24.70;;;;;;5064204;28;20599;-67
2022/04/12 00:25:55;;;;;;;25.48;4.15;;;30.30;24.90;;;;;;5048060;28;20069;-67
2022/04/12 00:28:21;;;;;;;21.67;4.00;;;30.40;24.90;;;;;;5048312;28;20092;-69
2022/04/12 00:30:48;;;;;;;29.25;4.40;;;30.40;24.80;;;;;;5047241;28;20066;-70
2022/04/12 00:33:15;;;;;;;18.17;3.75;;;30.40;24.80;;;;;;5049870;28;20094;-69
2022/04/12 00:35:41;;;;;;;21.02;3.80;;;30.40;24.70;;;;;;5048511;28;20090;-68
2022/04/12 00:38:17;;;;;;;21.55;4.43;;;30.30;24.80;;;;;;5032215;28;20069;-71
2022/04/12 00:40:45;;;;;;;20.95;4.22;;;30.30;25.00;;;;;;5047930;28;20067;-71
2022/04/12 00:43:12;;;;;;;22.40;3.75;;;30.10;24.90;;;;;;5063549;28;20072;-66
2022/04/12 00:45:38;;;;;;;17.63;4.00;;;30.10;25.10;;;;;;5060425;28;20074;-72
2022/04/12 00:48:05;;;;;;;13.82;3.30;;;30.00;25.10;;;;;;5048753;28;20072;-71
2022/04/12 00:50:31;;;;;;;18.08;3.42;;;30.00;25.20;;;;;;5047342;28;20078;-70
2022/04/12 00:52:59;;;;;;;19.00;3.85;;;29.80;25.10;;;;;;5047730;28;20522;-72
2022/04/12 00:55:25;;;;;;;17.83;3.15;;;29.90;25.20;;;;;;5030095;28;20170;-70
2022/04/12 00:57:52;;;;;;;16.00;3.70;;;29.80;25.20;;;;;;5045265;28;20070;-69
2022/04/12 01:00:18;;;;;;;20.52;4.13;;;29.80;25.30;;;;;;5048918;28;20142;-71
2022/04/12 01:02:45;;;;;;;20.17;4.00;;;29.70;25.50;;;;;;5046912;28;20582;-70
2022/04/12 01:05:12;;;;;;;15.65;3.40;;;29.60;25.60;;;;;;5065020;28;20160;-71
2022/04/12 01:07:38;;;;;;;22.55;3.75;;;29.50;25.80;;;;;;5047696;28;20544;-66
2022/04/12 01:10:05;;;;;;;201.23;15.18;;;29.30;26.00;;;;;;5048315;28;20156;-66
2022/04/12 01:12:38;;;;;;;28.67;4.50;;;29.10;26.30;;;;;;5048937;28;20080;-69
2022/04/12 01:15:24;;;;;;;24.38;4.57;;;29.10;26.50;;;;;;5047760;28;20084;-69
2022/04/12 01:17:52;;;;;;;31.80;4.57;;;28.80;26.70;;;;;;5048078;28;20539;-68
2022/04/12 01:20:30;;;;;;;35.10;4.93;;;28.70;26.90;;;;;;5063407;28;20403;-66
2022/04/12 01:23:16;;;;;;;37.55;4.72;;;28.70;26.90;;;;;;5047664;28;20097;-68
2022/04/12 01:25:42;;;;;;;21.90;4.00;;;28.50;27.10;;;;;;5047847;28;20858;-70
2022/04/12 01:28:10;;;;;;;26.70;3.63;;;28.50;27.30;;;;;;5047265;28;20080;-73
2022/04/12 01:30:38;;;;;;;74.07;5.85;;;28.40;27.20;;;;;;5063064;28;20076;-69
2022/04/12 01:33:04;;;;;;;34.88;4.22;;;28.10;27.30;;;;;;5063502;28;20219;-70
2022/04/12 01:35:31;;;;;;;57.30;5.93;;;27.90;27.40;;;;;;5049179;28;20134;-67
2022/04/12 01:37:58;;;;;;;18.80;3.80;;;27.80;27.70;;;;;;5062631;28;20524;-71
2022/04/12 01:40:25;;;;;;;30.48;4.50;;;27.70;27.80;;;;;;5063650;28;20072;-68
2022/04/12 01:42:52;;;;;;;31.80;4.53;;;27.50;28.00;;;;;;5046688;28;20084;-69
2022/04/12 01:45:24;;;;;;;37.67;5.57;;;27.50;28.30;;;;;;5046237;28;20419;-69
2022/04/12 01:47:50;;;;;;;60.38;5.30;;;27.40;28.30;;;;;;5046328;28;20113;-65
2022/04/12 01:50:17;;;;;;;31.95;4.65;;;27.30;28.40;;;;;;5046613;28;20077;-67
2022/04/12 01:52:43;;;;;;;60.03;6.38;;;27.20;28.50;;;;;;5046321;28;20222;-68
2022/04/12 01:55:10;;;;;;;29.60;4.80;;;27.10;28.70;;;;;;5063126;28;20108;-69
2022/04/12 01:57:37;;;;;;;39.72;4.45;;;26.90;28.90;;;;;;5063213;28;20101;-69
2022/04/12 02:00:07;;;;;;;37.30;5.93;;;26.90;29.10;;;;;;5062733;28;20068;-70
2022/04/12 02:02:34;;;;;;;38.97;4.55;;;26.70;29.70;;;;;;5045313;28;20389;-68
2022/04/12 02:05:00;;;;;;;31.63;4.95;;;26.60;29.40;;;;;;5047481;28;20124;-70
2022/04/12 02:07:27;;;;;;;33.08;4.53;;;26.50;29.50;;;;;;5048002;28;20131;-66
2022/04/12 02:09:53;;;;;;;26.92;4.20;;;26.50;29.60;;;;;;5046219;28;20076;-71
2022/04/12 02:12:20;;;;;;;20.58;3.97;;;26.40;29.80;;;;;;5048771;28;20072;-72
2022/04/12 02:14:46;;;;;;;32.20;4.60;;;26.30;29.90;;;;;;5043407;28;20182;-71
2022/04/12 02:17:13;;;;;;;33.15;8.48;;;26.20;29.90;;;;;;5044313;28;20069;-71
2022/04/12 02:19:39;;;;;;;59.20;31.50;;;26.20;30.00;;;;;;5043106;28;20082;-70
2022/04/12 02:22:07;;;;;;;25.63;4.07;;;26.10;30.10;;;;;;5045371;28;20080;-75
2022/04/12 02:24:34;;;;;;;19.90;4.35;;;26.10;30.20;;;;;;5063011;28;20420;-74
2022/04/12 02:27:00;;;;;;;19.67;3.83;;;26.00;30.30;;;;;;5046265;28;20092;-74
2022/04/12 02:29:26;;;;;;;22.30;4.30;;;25.90;30.40;;;;;;5061652;28;20156;-72
2022/04/12 02:31:53;;;;;;;20.52;3.75;;;25.80;30.40;;;;;;5062618;28;20083;-73
2022/04/12 02:34:19;;;;;;;26.08;3.67;;;25.80;30.60;;;;;;5046852;28;20099;-74
2022/04/12 02:36:47;;;;;;;26.73;4.50;;;25.70;30.70;;;;;;5062284;28;20083;-73
2022/04/12 02:39:13;;;;;;;16.25;4.10;;;25.70;30.90;;;;;;5048219;28;20083;-77
2022/04/12 02:41:40;;;;;;;24.27;4.75;;;25.70;31.00;;;;;;5062491;28;20072;-71
2022/04/12 02:44:06;;;;;;;20.67;5.18;;;25.60;31.00;;;;;;5046640;28;20654;-70
2022/04/12 02:46:32;;;;;;;17.20;3.72;;;25.50;31.00;;;;;;5044101;28;20168;-74
2022/04/12 02:48:59;;;;;;;23.45;3.80;;;25.50;31.10;;;;;;5047059;28;20126;-72
2022/04/12 02:51:26;;;;;;;17.48;3.65;;;25.50;31.10;;;;;;5044859;28;20531;-71
2022/04/12 02:53:52;;;;;;;16.85;3.83;;;25.50;31.10;;;;;;5046077;28;20088;-71
2022/04/12 02:56:18;;;;;;;19.98;4.00;;;25.40;31.20;;;;;;5045561;28;20119;-76
2022/04/12 02:58:45;;;;;;;18.83;4.15;;;25.40;31.20;;;;;;5062097;28;20075;-70
2022/04/12 03:01:11;;;;;;;15.63;4.25;;;25.30;31.30;;;;;;5062102;28;20088;-74
2022/04/12 03:03:37;;;;;;;21.23;4.45;;;25.30;31.30;;;;;;5049651;28;20073;-74
2022/04/12 03:06:04;;;;;;;20.60;3.40;;;25.20;31.50;;;;;;5050300;28;20803;-70
2022/04/12 03:08:30;;;;;;;36.05;5.50;;;25.10;31.90;;;;;;5049914;28;20088;-70
2022/04/12 03:10:57;;;;;;;22.33;4.15;;;25.10;32.20;;;;;;5049178;28;20445;-70
2022/04/12 03:13:24;;;;;;;34.28;4.60;;;25.00;32.50;;;;;;5045115;28;20157;-73
2022/04/12 03:15:50;;;;;;;19.75;3.83;;;24.90;33.00;;;;;;5051383;28;20096;-74
2022/04/12 03:18:17;;;;;;;22.80;3.72;;;24.80;33.30;;;;;;5049556;28;20064;-75
2022/04/12 03:20:44;;;;;;;15.93;3.75;;;24.80;33.60;;;;;;5050344;28;20068;-74
2022/04/12 03:23:11;;;;;;;20.55;4.07;;;24.70;33.80;;;;;;5061275;28;20146;-74
2022/04/12 03:25:38;;;;;;;25.65;4.90;;;24.50;34.20;;;;;;5048570;28;20072;-74
2022/04/12 03:28:05;;;;;;;27.55;4.45;;;24.50;34.50;;;;;;5049310;28;20151;-74
2022/04/12 03:30:32;;;;;;;24.63;5.30;;;24.40;34.90;;;;;;5047979;28;20073;-75
2022/04/12 03:32:58;;;;;;;30.02;4.45;;;24.30;35.90;;;;;;5048912;28;20084;-74
2022/04/12 03:35:24;;;;;;;30.63;5.38;;;24.20;35.80;;;;;;5049265;28;20476;-75
2022/04/12 03:37:51;;;;;;;24.80;5.28;;;24.10;36.10;;;;;;5048886;28;20539;-69
2022/04/12 03:40:18;;;;;;;39.50;6.75;;;24.10;36.50;;;;;;5048806;28;20544;-70
2022/04/12 03:42:45;;;;;;;35.47;5.93;;;24.00;37.00;;;;;;5048261;28;20123;-75
2022/04/12 03:45:11;;;;;;;46.85;7.35;;;23.90;37.50;;;;;;5063867;28;20162;-73
2022/04/12 03:47:38;;;;;;;44.45;7.07;;;23.80;38.10;;;;;;5060744;28;20077;-73
2022/04/12 03:50:05;;;;;;;43.10;7.53;;;23.50;38.80;;;;;;5063284;28;20084;-71
2022/04/12 03:52:32;;;;;;;38.13;6.70;;;23.50;39.20;;;;;;5050137;28;20084;-71
2022/04/12 03:54:58;;;;;;;41.88;6.63;;;23.40;39.40;;;;;;5048583;28;20109;-72
2022/04/12 03:57:25;;;;;;;31.52;6.30;;;23.30;39.80;;;;;;5065114;28;20099;-73
2022/04/12 03:59:51;;;;;;;39.53;7.20;;;23.20;40.10;;;;;;5065127;28;20069;-68
2022/04/12 04:02:18;;;;;;;35.88;6.18;;;23.10;40.90;;;;;;5047857;28;20081;-73
2022/04/12 04:04:44;;;;;;;46.85;7.53;;;23.00;41.40;;;;;;5065630;28;20081;-75
2022/04/12 04:07:11;;;;;;;30.58;6.53;;;22.80;42.00;;;;;;5050434;28;20069;-71
2022/04/12 04:09:37;;;;;;;36.78;7.32;;;22.70;42.50;;;;;;5048289;28;20068;-71
2022/04/12 04:12:04;;;;;;;37.45;7.18;;;22.60;42.70;;;;;;5065543;28;20175;-69
2022/04/12 04:14:31;;;;;;;42.80;7.32;;;22.60;42.90;;;;;;5065076;28;20088;-72
2022/04/12 04:17:01;;;;;;;60.70;8.68;;;22.50;43.50;;;;;;5051420;28;20415;-72
2022/04/12 04:19:27;;;;;;;63.22;9.75;;;22.50;44.00;;;;;;5066155;28;20077;-71
2022/04/12 04:21:55;;;;;;;83.45;10.95;;;22.20;44.70;;;;;;5047830;28;20073;-71
2022/04/12 04:24:23;;;;;;;75.05;10.98;;;22.00;45.20;;;;;;5061585;28;20149;-71
2022/04/12 04:26:55;;;;;;;61.90;9.65;;;21.90;45.60;;;;;;5063873;28;20095;-69
2022/04/12 04:29:27;;;;;;;83.82;12.40;;;21.80;46.50;;;;;;5048353;28;20159;-67
2022/04/12 04:31:54;;;;;;;96.70;13.77;;;21.70;46.20;;;;;;5048880;28;20088;-69
2022/04/12 04:34:20;;;;;;;98.13;17.08;;;21.70;46.40;;;;;;5049984;28;20081;-73
2022/04/12 04:36:46;;;;;;;86.53;15.75;;;21.60;46.60;;;;;;5048636;28;20100;-71
2022/04/12 04:39:13;;;;;;;66.45;10.45;;;21.50;46.80;;;;;;5049692;28;20091;-73
2022/04/12 04:41:39;;;;;;;58.13;8.65;;;21.50;46.70;;;;;;5048359;28;20077;-73
2022/04/12 04:44:07;;;;;;;47.10;8.80;;;21.50;46.60;;;;;;5065748;28;20432;-72
2022/04/12 04:46:34;;;;;;;58.08;8.48;;;21.30;46.70;;;;;;5065346;28;20173;-72
2022/04/12 04:49:00;;;;;;;52.35;8.45;;;21.30;47.00;;;;;;5063367;28;20314;-73
2022/04/12 04:51:27;;;;;;;46.85;8.30;;;21.30;47.10;;;;;;5047802;28;20118;-74
2022/04/12 04:53:58;;;;;;;61.97;8.20;;;21.20;47.30;;;;;;5049826;28;20081;-72
2022/04/12 04:56:26;;;;;;;67.50;9.85;;;21.10;47.80;;;;;;5046281;28;20116;-68
2022/04/12 04:58:53;;;;;;;54.47;8.43;;;20.90;48.30;;;;;;5046814;28;20089;-63
2022/04/12 05:01:22;;;;;;;63.10;9.02;;;20.90;48.70;;;;;;5046986;28;20436;-68
2022/04/12 05:03:50;;;;;;;52.25;7.68;;;20.90;49.10;;;;;;5048419;28;20080;-64
2022/04/12 05:06:17;;;;;;;47.38;7.50;;;20.80;49.50;;;;;;5063808;28;20520;-68
2022/04/12 05:08:44;;;;;;;39.45;7.00;;;20.70;49.60;;;;;;5046381;28;20118;-64
2022/04/12 05:11:10;;;;;;;51.72;9.45;;;20.70;50.20;;;;;;5046571;28;20072;-70
2022/04/12 05:13:37;;;;;;;40.08;7.68;;;20.60;50.40;;;;;;5046958;28;20066;-67
2022/04/12 05:16:03;;;;;;;43.40;6.30;;;20.50;50.50;;;;;;5043833;28;20159;-66
2022/04/12 05:18:30;;;;;;;30.88;6.70;;;20.50;50.30;;;;;;5062911;28;20074;-68
2022/04/12 05:20:56;;;;;;;28.52;5.78;;;20.50;50.60;;;;;;5062866;28;20089;-65
2022/04/12 05:23:23;;;;;;;30.20;5.82;;;20.50;50.40;;;;;;5063971;28;20103;-65
2022/04/12 05:25:53;;;;;;;41.35;6.60;;;20.50;50.80;;;;;;5062701;28;20156;-63
2022/04/12 05:28:21;;;;;;;35.42;5.85;;;20.40;51.10;;;;;;5047908;28;20074;-66
2022/04/12 05:30:47;;;;;;;41.42;7.07;;;20.40;51.20;;;;;;5055914;28;20607;-68
2022/04/12 05:33:14;;;;;;;28.30;6.22;;;20.40;51.40;;;;;;5047457;28;20118;-69
2022/04/12 05:35:41;;;;;;;28.27;5.97;;;20.30;51.40;;;;;;5044951;28;20090;-67
2022/04/12 05:38:08;;;;;;;30.60;6.10;;;20.30;51.60;;;;;;5046081;28;20172;-66
2022/04/12 05:40:35;;;;;;;28.85;7.05;;;20.30;51.60;;;;;;5047221;28;20080;-66
2022/04/12 05:43:01;;;;;;;35.92;7.82;;;20.20;51.80;;;;;;5061140;28;20112;-66
2022/04/12 05:45:27;;;;;;;39.83;7.97;;;20.30;51.90;;;;;;5046421;28;20109;-66
2022/04/12 05:47:54;;;;;;;;;;;20.20;52.00;;;;;;5028897;28;20081;-65
2022/04/12 05:50:23;;;;;;;36.15;8.20;;;20.20;52.10;;;;;;5058840;28;20441;-68
2022/04/12 05:52:50;;;;;;;39.80;8.30;;;20.20;52.20;;;;;;5063622;28;20081;-65
2022/04/12 05:55:18;;;;;;;42.17;7.93;;;20.20;52.40;;;;;;5062173;28;20139;-68
2022/04/12 05:57:52;;;;;;;46.28;7.72;;;20.20;52.80;;;;;;5062956;28;20096;-65
2022/04/12 06:00:20;;;;;;;32.25;6.45;;;20.20;53.00;;;;;;5044658;28;20080;-64
2022/04/12 06:02:51;;;;;;;27.17;5.72;;;20.20;53.10;;;;;;5061807;28;20456;-64
2022/04/12 06:05:18;;;;;;;30.17;5.22;;;20.20;53.00;;;;;;5063042;28;20084;-65
2022/04/12 06:07:45;;;;;;;29.20;5.90;;;20.10;53.30;;;;;;5047750;28;20081;-66
2022/04/12 06:10:13;;;;;;;28.15;4.88;;;20.00;53.60;;;;;;5061527;28;20144;-66
2022/04/12 06:12:40;;;;;;;19.77;4.53;;;20.00;53.70;;;;;;5045643;28;20176;-68
2022/04/12 06:15:07;;;;;;;25.48;5.60;;;20.00;53.90;;;;;;5062702;28;20848;-65
2022/04/12 06:17:35;;;;;;;23.60;5.43;;;20.00;54.10;;;;;;5046578;28;20097;-68
2022/04/12 06:20:05;;;;;;;27.52;5.78;;;19.90;54.00;;;;;;5061416;28;20567;-65
2022/04/12 06:22:32;;;;;;;29.40;6.03;;;20.00;54.20;;;;;;5047899;28;20118;-65
2022/04/12 06:24:58;;;;;;;27.15;4.60;;;19.90;54.50;;;;;;5046119;28;20084;-65
2022/04/12 06:27:40;;;;;;;32.83;6.93;;;19.90;54.70;;;;;;5045915;28;20080;-68
2022/04/12 06:30:09;;;;;;;27.08;6.57;;;19.80;55.20;;;;;;5061585;28;20164;-67
2022/04/12 06:32:36;;;;;;;28.35;6.15;;;19.70;55.60;;;;;;5047302;28;20506;-64
2022/04/12 06:35:05;;;;;;;26.95;6.82;;;19.70;55.20;;;;;;5061969;28;20108;-64
2022/04/12 06:37:32;;;;;;;26.00;6.65;;;19.80;54.60;;;;;;5047405;28;20108;-66
2022/04/12 06:40:00;;;;;;;29.17;7.05;;;19.80;54.30;;;;;;5066358;28;20073;-64
2022/04/12 06:42:27;;;;;;;17.70;5.03;;;19.90;53.50;;;;;;5066212;28;20562;-64
2022/04/12 06:44:53;;;;;;;21.23;4.82;;;20.00;52.60;;;;;;5051229;28;20142;-65
2022/04/12 06:47:20;;;;;;;19.35;5.38;;;20.20;51.90;;;;;;5066008;28;20076;-68
2022/04/12 06:49:47;;;;;;;27.83;5.82;;;20.20;51.40;;;;;;5031635;28;20079;-64
2022/04/12 06:52:17;;;;;;;23.10;5.07;;;20.30;51.40;;;;;;5063535;28;20072;-65
2022/04/12 06:54:44;;;;;;;33.90;5.25;;;20.30;51.80;;;;;;5048724;28;20100;-65
2022/04/12 06:57:10;;;;;;;19.10;4.57;;;20.20;52.30;;;;;;5051708;28;20081;-66
2022/04/12 06:59:37;;;;;;;30.05;4.70;;;20.20;52.70;;;;;;5050894;28;20066;-68
2022/04/12 07:02:04;;;;;;;31.67;4.53;;;20.10;53.10;;;;;;5050928;28;20182;-64
2022/04/12 07:04:31;;;;;;;34.33;3.90;;;20.10;53.60;;;;;;5065751;28;20115;-67
2022/04/12 07:06:58;;;;;;;34.60;4.40;;;20.00;53.70;;;;;;5064749;28;20867;-69
2022/04/12 07:09:28;;;;;;;35.28;3.95;;;20.00;54.00;;;;;;5065134;28;20084;-66
2022/04/12 07:11:59;;;;;;;28.95;3.45;;;19.90;54.00;;;;;;5064799;28;20171;-65
2022/04/12 07:14:28;;;;;;;22.80;3.53;;;19.90;54.10;;;;;;5065836;28;20568;-65
2022/04/12 07:16:56;;;;;;;24.77;3.95;;;19.90;54.20;;;;;;5065522;28;20624;-67
2022/04/12 07:19:22;;;;;;;23.55;4.03;;;19.90;53.90;;;;;;5065738;28;20101;-66
2022/04/12 07:21:49;;;;;;;30.27;3.10;;;20.00;53.70;;;;;;5066163;28;20068;-65
2022/04/12 07:24:15;;;;;;;19.70;2.70;;;20.00;51.10;;;;;;5065552;28;20077;-67
2022/04/12 07:26:42;;;;;;;105.15;6.90;;;20.20;50.70;;;;;;5048218;28;20068;-71
2022/04/12 07:29:09;;;;;;;24.23;2.33;;;20.30;49.40;;;;;;5049970;28;20177;-69
2022/04/12 07:31:35;;;;;;;19.25;2.65;;;20.40;48.50;;;;;;5050646;28;20076;-70
2022/04/12 07:34:01;;;;;;;24.90;2.83;;;20.50;49.00;;;;;;5065455;28;20104;-70
2022/04/12 07:36:28;;;;;;;27.90;3.00;;;20.50;49.40;;;;;;5050785;28;20104;-69
2022/04/12 07:38:54;;;;;;;24.88;2.78;;;20.50;49.10;;;;;;5065052;28;20452;-70
2022/04/12 07:41:21;;;;;;;26.33;2.95;;;20.50;49.10;;;;;;5050080;28;20546;-73
2022/04/12 07:43:49;;;;;;;17.05;2.85;;;20.60;49.10;;;;;;5064452;28;20092;-73
2022/04/12 07:46:16;;;;;;;37.05;2.83;;;20.60;49.10;;;;;;5050554;28;20068;-71
2022/04/12 07:48:43;;;;;;;38.33;3.47;;;20.50;49.50;;;;;;5049128;28;20551;-73
2022/04/12 07:51:10;;;;;;;64.35;5.30;;;20.40;49.10;;;;;;5065580;28;20081;-70
2022/04/12 07:53:37;;;;;;;94.57;6.20;;;20.40;48.70;;;;;;5061169;28;20068;-69
2022/04/12 07:56:03;;;;;;;103.72;7.03;;;20.40;48.30;;;;;;5065587;28;20104;-70
2022/04/12 07:58:30;;;;;;;93.55;7.47;;;20.40;48.00;;;;;;5049235;28;20130;-73
2022/04/12 08:00:56;;;;;;;81.45;6.97;;;20.40;47.70;;;;;;5063733;28;20141;-71
2022/04/12 08:03:23;;;;;;;113.90;8.02;;;20.50;47.40;;;;;;5048520;28;20382;-73
2022/04/12 08:05:52;;;;;;;70.07;6.72;;;20.50;47.30;;;;;;5050816;28;20119;-72
2022/04/12 08:08:19;;;;;;;64.85;5.47;;;20.50;47.00;;;;;;5048479;28;20378;-70
2022/04/12 08:10:46;;;;;;;57.72;5.38;;;20.50;46.70;;;;;;5065584;28;20108;-71
2022/04/12 08:13:12;;;;;;;76.88;6.28;;;20.60;46.00;;;;;;5063782;28;20505;-69
2022/04/12 08:15:39;;;;;;;193.68;10.48;;;20.70;45.80;;;;;;5048015;28;20148;-71
2022/04/12 08:18:06;;;;;;;97.50;5.70;;;20.70;45.70;;;;;;5064920;28;20125;-70
2022/04/12 08:20:35;;;;;;;73.32;5.70;;;20.70;45.70;;;;;;5047958;28;20080;-70
2022/04/12 08:23:02;;;;;;;61.03;5.70;;;20.80;44.90;;;;;;5048351;28;20729;-69
2022/04/12 08:25:29;;;;;;;52.25;4.13;;;20.80;44.60;;;;;;5063028;28;20084;-67
2022/04/12 08:27:55;;;;;;;32.10;3.33;;;20.80;44.30;;;;;;5046365;28;20462;-69
2022/04/12 08:30:22;;;;;;;44.83;3.33;;;20.90;44.30;;;;;;5064798;28;20420;-71
2022/04/12 08:32:49;;;;;;;42.65;2.90;;;20.80;44.30;;;;;;5062691;28;20742;-71
2022/04/12 08:35:16;;;;;;;65.18;5.55;;;20.90;44.40;;;;;;5064606;28;20179;-70
2022/04/12 08:37:43;;;;;;;31.10;2.47;;;20.80;44.60;;;;;;5063394;28;20118;-68
2022/04/12 08:40:11;;;;;;;35.63;3.03;;;20.80;44.90;;;;;;5047150;28;20165;-70
2022/04/12 08:42:38;;;;;;;46.22;3.70;;;20.80;45.20;;;;;;5064247;28;20068;-71
2022/04/12 08:45:08;;;;;;;93.93;5.88;;;20.80;45.50;;;;;;5046827;28;20146;-68
2022/04/12 08:47:35;;;;;;;56.30;4.70;;;20.70;46.60;;;;;;5051329;28;20072;-70
2022/04/12 08:50:03;;;;;;;64.63;3.72;;;20.60;46.40;;;;;;5065026;28;20083;-68
2022/04/12 08:52:29;;;;;;;78.07;4.68;;;20.60;46.80;;;;;;5046173;28;20637;-71
2022/04/12 08:54:56;;;;;;;78.78;5.38;;;20.60;46.80;;;;;;5057810;28;20571;-68
2022/04/12 08:57:22;;;;;;;86.43;5.78;;;20.50;47.00;;;;;;5062883;28;20613;-70
2022/04/12 08:59:49;;;;;;;100.05;6.00;;;20.50;47.30;;;;;;5046621;28;20100;-71
2022/04/12 09:02:15;;;;;;;90.63;5.05;;;20.50;47.40;;;;;;5062684;28;20068;-70
2022/04/12 09:04:42;;;;;;;102.57;5.15;;;20.50;47.40;;;;;;5047670;28;20538;-68
2022/04/12 09:07:10;;;;;;;76.43;4.40;;;20.30;47.70;;;;;;5046068;28;20072;-72
2022/04/12 09:09:40;;;;;;;24.92;2.28;;;20.20;49.90;;;;;;5065029;28;20080;-69
2022/04/12 09:12:12;;;;;;;39.05;1.70;;;20.00;52.10;;;;;;5063530;28;20072;-67
2022/04/12 09:14:52;;;;;;;52.35;3.13;;;19.70;52.90;;;;;;5048210;28;20184;-67
2022/04/12 09:17:33;;;;;;;42.13;3.05;;;19.40;54.10;;;;;;5059487;28;20894;-71
2022/04/12 09:20:01;;;;;;;67.07;3.55;;;19.40;54.40;;;;;;5063935;28;20081;-70
2022/04/12 09:22:28;;;;;;;46.92;3.38;;;19.20;54.50;;;;;;5062655;28;20108;-72
2022/04/12 09:24:59;;;;;;;31.90;2.55;;;19.10;54.70;;;;;;5063392;28;20168;-70
2022/04/12 09:27:30;;;;;;;36.95;2.70;;;19.10;54.40;;;;;;5063564;28;20080;-69
2022/04/12 09:30:04;;;;;;;45.25;3.50;;;19.00;54.60;;;;;;5047869;28;20073;-66
2022/04/12 09:32:45;;;;;;;22.65;1.92;;;18.90;54.70;;;;;;5047315;28;20077;-73
2022/04/12 09:35:12;;;;;;;31.02;1.40;;;18.90;54.70;;;;;;5046611;28;20084;-69
2022/04/12 09:37:44;;;;;;;13.70;1.15;;;18.90;54.30;;;;;;5062518;28;20128;-72
2022/04/12 09:40:12;;;;;;;12.18;1.00;;;18.90;53.40;;;;;;5044968;28;20082;-69
2022/04/12 09:42:41;;;;;;;7.43;0.80;;;18.90;53.20;;;;;;5044464;28;20436;-68
2022/04/12 09:45:11;;;;;;;9.27;1.50;;;18.80;52.50;;;;;;5067611;28;20084;-67
2022/04/12 09:47:38;;;;;;;30.40;1.90;;;18.90;53.20;;;;;;5050791;28;20082;-67
2022/04/12 09:50:05;;;;;;;15.63;1.70;;;18.70;53.90;;;;;;5052411;28;20226;-67
2022/04/12 09:52:32;;;;;;;25.83;1.95;;;18.50;54.10;;;;;;5049840;28;20094;-70
2022/04/12 09:54:59;;;;;;;16.67;1.70;;;18.50;54.20;;;;;;5064992;28;20152;-68
2022/04/12 09:57:26;;;;;;;17.35;1.75;;;18.50;54.50;;;;;;5064412;28;20085;-68
2022/04/12 09:59:57;;;;;;;29.80;2.53;;;18.40;54.50;;;;;;5067563;28;20440;-70
2022/04/12 10:02:25;;;;;;;23.90;2.08;;;18.40;55.10;;;;;;5045992;28;20070;-69
2022/04/12 10:04:53;;;;;;;20.63;1.60;;;18.20;55.70;;;;;;5062942;28;20179;-70
2022/04/12 10:07:23;;;;;;;15.55;1.20;;;18.20;56.20;;;;;;5064024;28;20084;-69
2022/04/12 10:09:53;;;;;;;12.48;1.50;;;18.20;56.20;;;;;;5062616;28;20083;-69
2022/04/12 10:12:20;;;;;;;10.32;1.05;;;18.20;56.40;;;;;;5048093;28;20096;-69
2022/04/12 10:14:47;;;;;;;12.68;1.27;;;18.10;56.80;;;;;;5066834;28;20091;-68
2022/04/12 10:17:14;;;;;;;8.82;0.88;;;18.10;56.80;;;;;;5050802;28;20077;-71
2022/04/12 10:19:42;;;;;;;6.63;1.13;;;18.10;56.70;;;;;;5067271;28;20199;-68
2022/04/12 10:22:09;;;;;;;5.78;0.93;;;18.10;56.70;;;;;;5051105;28;20101;-64
2022/04/12 10:24:37;;;;;;;4.88;0.90;;;18.10;55.80;;;;;;5066765;28;20069;-65
2022/04/12 10:27:06;;;;;;;8.23;0.90;;;18.20;54.90;;;;;;5051333;28;20080;-63
2022/04/12 10:29:32;;;;;;;11.15;0.75;;;18.20;55.40;;;;;;5048999;28;20069;-64
2022/04/12 10:32:03;;;;;;;;;;;18.20;55.20;;;;;;5049271;28;20124;-65
2022/04/12 10:34:30;;;;;;;13.20;1.00;;;18.30;56.00;;;;;;5055413;28;20161;-64
2022/04/12 10:37:04;;;;;;;3.88;0.80;;;18.20;56.20;;;;;;5049966;28;20073;-66
2022/04/12 10:39:47;;;;;;;6.45;0.90;;;18.10;56.30;;;;;;5050941;28;20144;-63
2022/04/12 10:42:19;;;;;;;7.05;1.02;;;18.00;57.20;;;;;;5049251;28;20485;-62
2022/04/12 10:44:52;;;;;;;6.03;1.23;;;17.90;57.80;;;;;;5033496;28;20078;-64
2022/04/12 10:47:36;;;;;;;9.60;1.20;;;17.80;58.30;;;;;;5049904;28;20076;-64
2022/04/12 10:50:08;;;;;;;7.43;1.23;;;17.70;58.30;;;;;;5066250;28;20456;-64
2022/04/12 10:52:37;;;;;;;8.35;1.20;;;17.60;57.90;;;;;;5050945;28;20095;-67
2022/04/12 10:55:07;;;;;;;3.75;0.88;;;17.70;55.90;;;;;;5065752;28;20183;-64
2022/04/12 10:57:34;;;;;;;14.60;2.08;;;17.70;56.20;;;;;;5049516;28;20075;-65
2022/04/12 11:00:13;;;;;;;14.13;1.73;;;17.60;56.50;;;;;;5050452;28;20074;-65
2022/04/12 11:02:53;;;;;;;16.58;2.10;;;17.50;55.20;;;;;;5051414;28;20072;-67
2022/04/12 11:05:45;;;;;;;17.38;2.13;;;17.40;52.40;;;;;;5051389;28;20420;-65
2022/04/12 11:08:14;;;;;;;9.25;1.75;;;17.40;51.00;;;;;;5048913;28;20100;-64
2022/04/12 11:11:03;;;;;;;18.40;2.60;;;17.50;49.60;;;;;;5049011;28;20073;-64
2022/04/12 11:13:31;;;;;;;22.88;2.60;;;17.50;48.30;;;;;;5036008;28;20085;-64
2022/04/12 11:16:01;;;;;;;14.82;2.17;;;17.50;47.20;;;;;;5064934;28;20570;-64
2022/04/12 11:18:51;;;;;;;14.13;2.53;;;17.40;46.90;;;;;;5049322;28;20213;-63
2022/04/12 11:21:26;;;;;;;16.98;2.67;;;17.50;46.70;;;;;;5047839;28;20119;-63
2022/04/12 11:23:55;;;;;;;43.58;3.65;;;17.50;46.40;;;;;;5047102;28;20076;-64
2022/04/12 11:26:37;;;;;;;15.35;2.08;;;17.50;44.90;;;;;;5047308;28;20074;-65
2022/04/12 11:29:08;;;;;;;9.35;2.05;;;17.50;44.10;;;;;;5065250;28;20144;-64
2022/04/12 11:31:38;;;;;;;9.27;2.10;;;17.60;44.10;;;;;;5050423;28;20083;-64
2022/04/12 11:34:06;;;;;;;9.85;2.22;;;17.60;44.20;;;;;;5048292;28;20096;-64
2022/04/12 11:36:33;;;;;;;13.82;2.75;;;17.60;44.20;;;;;;5065712;28;20091;-65
2022/04/12 11:39:00;;;;;;;15.30;2.45;;;17.60;44.10;;;;;;5047912;28;20084;-65
2022/04/12 11:41:27;;;;;;;;;;;17.60;44.20;;;;;;5048541;28;20150;-67
2022/04/12 11:44:01;;;;;;;12.90;2.05;;;17.50;44.30;;;;;;5046633;28;20048;-67
2022/04/12 11:46:36;;;;;;;8.93;2.05;;;17.50;43.00;;;;;;5049902;28;20073;-65
2022/04/12 11:49:27;;;;;;;9.30;2.15;;;17.50;41.00;;;;;;5064669;28;20448;-64
2022/04/12 11:51:54;;;;;;;8.68;2.10;;;17.50;40.30;;;;;;5048426;28;20555;-63
2022/04/12 11:54:25;;;;;;;9.30;2.15;;;17.40;39.70;;;;;;5064766;28;20081;-66
2022/04/12 11:57:02;;;;;;;9.15;2.15;;;17.40;39.40;;;;;;5047386;28;20120;-65
2022/04/12 11:59:30;;;;;;;8.88;1.95;;;17.50;40.60;;;;;;5063784;28;20068;-64
2022/04/12 12:02:02;;;;;;;12.80;2.50;;;17.40;41.40;;;;;;5049212;28;20624;-65
2022/04/12 12:04:34;;;;;;;11.25;2.58;;;17.20;41.30;;;;;;5048008;28;20085;-65
2022/04/12 12:07:07;;;;;;;12.75;2.67;;;17.20;41.40;;;;;;5064296;28;20088;-64
2022/04/12 12:09:34;;;;;;;14.10;2.63;;;17.20;40.60;;;;;;5048347;28;20497;-64
2022/04/12 12:12:08;;;;;;;10.55;2.22;;;17.20;40.40;;;;;;5046513;28;20084;-64
2022/04/12 12:14:36;;;;;;;10.13;2.17;;;17.20;40.60;;;;;;5049099;28;20107;-65
2022/04/12 12:17:18;;;;;;;13.40;3.08;;;17.10;40.70;;;;;;5063387;28;20128;-64
2022/04/12 12:19:45;;;;;;;7.05;2.30;;;17.00;40.90;;;;;;5065398;28;20119;-63
2022/04/12 12:22:13;;;;;;;12.63;2.60;;;17.00;41.70;;;;;;5050453;28;20074;-67
2022/04/12 12:24:55;;;;;;;11.52;2.78;;;16.80;42.00;;;;;;5049051;28;20647;-64
2022/04/12 12:27:31;;;;;;;14.40;3.33;;;16.70;42.30;;;;;;5062272;28;20180;-67
2022/04/12 12:30:07;;;;;;;12.50;2.55;;;16.70;41.80;;;;;;5047145;28;20114;-63
2022/04/12 12:32:39;;;;;;;12.82;2.67;;;16.60;42.20;;;;;;5063946;28;20081;-65
2022/04/12 12:35:09;;;;;;;14.07;3.08;;;16.40;42.90;;;;;;5062842;28;20121;-64
2022/04/12 12:37:37;;;;;;;14.13;2.97;;;16.30;43.60;;;;;;5048099;28;20086;-66
2022/04/12 12:40:25;;;;;;;20.85;3.67;;;16.20;43.90;;;;;;5062607;28;20088;-67
2022/04/12 12:42:53;;;;;;;13.75;3.55;;;16.20;44.20;;;;;;5047346;28;20078;-64
2022/04/12 12:45:21;;;;;;;15.18;3.10;;;16.10;44.20;;;;;;5047868;28;20163;-63
2022/04/12 12:47:56;;;;;;;14.50;3.08;;;16.00;44.60;;;;;;5048340;28;20073;-63